アナディリ・ウゴルヌイ空港の過去48時間の天気

アナディリ・ウゴルヌイ空港 (Anadyr)

現在時刻: 2/7 07:29 +11 (2/6 20:29 UTC) 以下の時間は現地時間です。

過去48時間のMETAR気象情報
時間 風向 風速(m/s) 視程 気温(℃) 湿度(%) 気圧(hPa) 天気現象
7 07:00 5 10km以上 -27 76 1008
7 06:30 5 10km以上 -27 76 1008 弱い雪
7 06:00 6 10km以上 -27 76 1008 弱い雪
7 05:30 6 10km以上 -28 75 1008 弱い雪
7 05:00 6 10km以上 -28 75 1008 弱い雪
7 04:30 5 10km以上 -28 75 1008 弱い雪
7 04:00 5 10km以上 -28 75 1008 弱い雪
7 03:30 4 10km以上 -28 75 1008 弱い雪
7 03:00 5 10km以上 -28 75 1008 弱い雪
7 02:30 4 10km以上 -29 75 1008 弱い雪
7 02:00 5 10km以上 -29 75 1008 弱い雪
7 01:30 北北東 5 10km以上 -29 68 1008 弱い雪
7 01:00 6 10km以上 -30 75 1008 弱い雪
7 00:30 7 10km以上 -30 75 1008 弱い雪
7 00:00 北北東 7 10km以上 -30 75 1008
6 23:30 北北東 6 10km以上 -31 75 1008
6 23:00 北北東 6 10km以上 -32 75 1008
6 22:30 6 10km以上 -31 75 1008
6 22:00 6 10km以上 -31 75 1008
6 21:30 6 10km以上 -31 68 1007
6 21:00 6 10km以上 -31 75 1007
6 20:30 5 10km以上 -31 68 1007
6 20:00 6 10km以上 -31 75 1007
6 19:30 5 10km以上 -31 68 1007
6 19:00 5 10km以上 -31 75 1007
6 18:30 北北東 5 10km以上 -32 75 1007
6 18:00 6 10km以上 -31 75 1007
6 17:30 5 10km以上 -31 75 1007
6 17:00 北北東 6 10km以上 -31 75 1007
6 16:30 5 10km以上 -31 75 1007
6 16:00 5 10km以上 -30 75 1006
6 15:30 5 10km以上 -30 75 1006
6 15:00 5 10km以上 -30 75 1006
6 14:30 5 10km以上 -30 75 1006
6 14:00 7 10km以上 -30 75 1006
6 13:30 北北西 6 10km以上 -30 75 1006
6 13:00 北北西 7 10km以上 -30 75 1006
6 12:30 北北西 6 10km以上 -30 68 1006 弱い雪
6 12:00 5 10km以上 -31 75 1006 弱い雪
6 11:30 6 10km以上 -31 75 1006 弱い雪
6 11:00 5 10km以上 -31 75 1006 弱い雪
6 10:30 6 10km以上 -31 75 1006 弱い雪
6 10:00 6 10km以上 -31 75 1006 弱い雪
6 09:30 6 10km以上 -31 75 1006 弱い雪
6 09:00 5 10km以上 -31 68 1006
6 08:30 6 10km以上 -32 75 1006
6 08:00 北北西 5 10km以上 -32 75 1006
6 07:30 8 10km以上 -32 75 1006
6 07:00 6 10km以上 -32 68 1006
6 06:30 5 10km以上 -33 74 1005 弱い雪
6 06:00 5 10km以上 -33 74 1005
6 05:30 北北東 5 10km以上 -33 74 1005
6 05:00 4 10km以上 -34 74 1005
6 04:30 4 10km以上 -34 67 1006
6 04:00 4 10km以上 -34 74 1005
6 03:30 5 10km以上 -34 74 1005
6 03:00 3 10km以上 -35 74 1005
6 02:30 北北西 5 10km以上 -34 74 1005
6 02:00 北北西 6 10km以上 -34 74 1005
6 01:30 2 10km以上 -34 74 1005
6 01:00 北北西 4 10km以上 -34 74 1005
6 00:30 北北西 4 10km以上 -34 74 1005
6 00:00 4 10km以上 -33 74 1005
5 23:30 北北西 6 10km以上 -33 74 1005
5 23:00 北西 4 10km以上 -33 74 1005
5 22:30 4 10km以上 -33 74 1005
5 22:00 北北東 5 10km以上 -33 74 1005
5 21:30 5 10km以上 -33 74 1005
5 21:00 4 10km以上 -33 74 1005
5 20:30 3 10km以上 -33 74 1005
5 20:00 4 10km以上 -33 67 1006
5 19:30 北西 4 10km以上 -33 74 1006
5 19:00 北北西 5 10km以上 -32 75 1006
5 18:30 北北西 6 10km以上 -32 75 1005
5 18:00 6 10km以上 -31 75 1005
5 17:30 北北西 5 10km以上 -31 75 1005
5 17:00 3 10km以上 -31 68 1006
5 16:30 北北西 2 10km以上 -31 75 1006
5 16:00 4 10km以上 -31 75 1006
5 15:30 北北西 6 10km以上 -31 75 1006
5 15:00 5 10km以上 -31 75 1006
5 14:30 北北西 6 10km以上 -30 68 1006
5 14:00 5 10km以上 -31 75 1006
5 13:30 4 10km以上 -30 68 1006
5 13:00 4 10km以上 -30 68 1006
5 12:30 4 10km以上 -30 75 1006
5 12:00 4 10km以上 -30 75 1006
5 11:30 4 10km以上 -29 68 1006
5 11:00 北北西 3 10km以上 -30 75 1007
5 10:00 4 10km以上 -30 75 1007
5 09:00 6 10km以上 -30 75 1007
5 08:00 7 10km以上 -30 68 1007
UHMA 062000Z 01005MPS 9999 BKN042 M27/M30 Q1008 R01/////// NOSIG RMK MID 36005MPS END R01/36004MPS QFE752/1003
UHMA 061930Z 01005MPS 9999 -SN BKN038 M27/M30 Q1008 R01/////// NOSIG RMK MID 36004MPS END R01/35006MPS QFE752/1003
UHMA 061900Z 36006MPS 9999 -SN BKN038 BKN048 M27/M30 Q1008 R01/////// NOSIG RMK MID 35005MPS END R01/34007MPS QFE752/1003
UHMA 061830Z 36006MPS 9999 -SN BKN037 BKN048 M28/M31 Q1008 R01/////// NOSIG RMK MID 36004MPS END R01/35005MPS QFE752/1003
UHMA 061800Z 01006MPS 9999 -SN FEW031 BKN039 BKN048 M28/M31 Q1008 R01/////// NOSIG RMK MID 01004MPS END R01/36005MPS QFE752/1003
UHMA 061730Z 01005MPS 9999 -SN SCT032 BKN040 BKN048 M28/M31 Q1008 R01/////// NOSIG RMK MID 02005MPS END R01/02004MPS QFE752/1003
UHMA 061700Z 36005MPS 9999 -SN BKN034 M28/M31 Q1008 R01/////// NOSIG RMK MID 01003MPS END R01/36003MPS QFE752/1003
UHMA 061630Z 01004MPS 9999 -SN BKN036 M28/M31 Q1008 R01/////// NOSIG RMK MID 36005MPS END R01/01003MPS QFE752/1003
UHMA 061600Z 01005MPS 9999 -SN BKN033 BKN044 M28/M31 Q1008 R01/////// NOSIG RMK MID 01005MPS END R01/01005MPS QFE752/1003
UHMA 061530Z 01004MPS 9999 -SN BKN033 BKN044 M29/M32 Q1008 R01/////// NOSIG RMK MID 01005MPS END R01/02003MPS QFE752/1003
UHMA 061500Z 36005MPS 9999 -SN SCT035 BKN046 M29/M32 Q1008 R01/////// NOSIG RMK MID 01004MPS END R01/01004MPS QFE752/1003
UHMA 061430Z 02005MPS 9999 -SN SCT032 BKN046 M29/M33 Q1008 R01/////// NOSIG RMK MID 36004MPS END R01/36005MPS QFE752/1003
UHMA 061400Z 01006MPS 9999 -SN BKN033 M30/M33 Q1008 R01/////// NOSIG RMK MID 01006MPS END R01/35004MPS QFE752/1003
UHMA 061330Z 01007MPS 9999 -SN BKN036 M30/M33 Q1008 R01/////// NOSIG RMK MID 02006MPS END R01/36004MPS QFE752/1003
UHMA 061300Z 03007MPS 9999 SCT039 M30/M33 Q1008 R01/////// NOSIG RMK MID 05005MPS END R01/01004MPS QFE752/1003
UHMA 061230Z 02006MPS 9999 FEW041 M31/M34 Q1008 R01/////// NOSIG RMK MID 03006MPS END R01/04004MPS QFE752/1003
UHMA 061200Z 03006MPS 9999 FEW042 M32/M35 Q1008 R01/////// NOSIG RMK MID 03005MPS END R01/03005MPS QFE752/1003
UHMA 061130Z 01006MPS CAVOK M31/M34 Q1008 R01/////// NOSIG RMK MID 01006MPS END R01/01005MPS QFE752/1003
UHMA 061100Z 36006MPS CAVOK M31/M34 Q1008 R01/////// NOSIG RMK MID 36007MPS END R01/35006MPS QFE752/1003
UHMA 061030Z 35006MPS CAVOK M31/M35 Q1007 R01/////// NOSIG RMK MID 36005MPS END R01/34004MPS QFE752/1003
UHMA 061000Z 36006MPS CAVOK M31/M34 Q1007 R01/////// NOSIG RMK MID 35006MPS END R01/34006MPS QFE752/1002
UHMA 060930Z 35005MPS CAVOK M31/M35 Q1007 R01/////// NOSIG RMK MID 34005MPS END R01/33004MPS QFE752/1002
UHMA 060900Z 36006MPS 9999 FEW002 M31/M34 Q1007 R01/////// NOSIG RMK MID 35006MPS END R01/32004MPS QFE752/1002
UHMA 060830Z 36005MPS 9999 FEW002 M31/M35 Q1007 R01/////// NOSIG RMK MID 35005MPS END R01/33005MPS QFE752/1002
UHMA 060800Z 36005MPS CAVOK M31/M34 Q1007 R01/////// NOSIG RMK MID 35004MPS END R01/33003MPS QFE751/1002
UHMA 060730Z 02005MPS CAVOK M32/M35 Q1007 R01/////// NOSIG RMK MID 02006MPS END R01/05003MPS QFE751/1002
UHMA 060700Z 01006MPS CAVOK M31/M34 Q1007 R01/////// NOSIG RMK MID 02005MPS END R01/02005MPS QFE751/1002
UHMA 060630Z 01005MPS CAVOK M31/M34 Q1007 R01/////// NOSIG RMK MID 02004MPS END R01/03004MPS QFE751/1002
UHMA 060600Z 02006MPS 9999 SCT050 M31/M34 Q1007 R01/920370 NOSIG RMK MID 02004MPS END R01/01005MPS QFE751/1002
UHMA 060530Z 01005MPS 9999 SCT050 M31/M34 Q1007 R01/920370 NOSIG RMK MID 02005MPS END R01/01004MPS QFE751/1002
UHMA 060500Z 36005MPS 9999 BKN050 M30/M33 Q1006 R01/920370 NOSIG RMK MID 01005MPS END R01/35006MPS QFE751/1001
UHMA 060430Z 01005MPS 9999 BKN050 M30/M33 Q1006 R01/920370 NOSIG RMK MID 36004MPS END R01/36005MPS QFE751/1001
UHMA 060400Z 35005MPS 9999 BKN049 M30/M33 Q1006 R01/920370 NOSIG RMK MID 35005MPS END R01/34006MPS QFE751/1001
UHMA 060330Z 36005MPS 9999 BKN047 M30/M33 Q1006 R01/920370 NOSIG RMK MID 36005MPS END R01/35005MPS QFE751/1001
UHMA 060300Z 35007MPS 9999 BKN047 M30/M33 Q1006 R01/920370 NOSIG RMK MID 35005MPS END R01/35006MPS QFE751/1001
UHMA 060230Z 34006MPS 9999 BKN046 M30/M33 Q1006 R01/920370 NOSIG RMK MID 34006MPS END R01/34006MPS QFE751/1001
UHMA 060200Z 34007MPS 9999 BKN046 M30/M33 Q1006 R01/920370 NOSIG RMK MID 33007MPS END R01/33006MPS QFE751/1001
UHMA 060130Z 34006MPS 9999 -SN BKN046 M30/M34 Q1006 R01/920370 NOSIG RMK MID 34006MPS END R01/34005MPS QFE751/1001
UHMA 060100Z 36005MPS 9999 -SN BKN046 M31/M34 Q1006 R01/920370 NOSIG RMK MID 35005MPS END R01/34006MPS QFE751/1001
UHMA 060030Z 36006MPS 9999 -SN BKN045 M31/M34 Q1006 R01/920370 NOSIG RMK MID 36005MPS END R01/35005MPS QFE751/1001
UHMA 060000Z 36005MPS 9999 -SN BKN045 M31/M34 Q1006 R01/920370 NOSIG RMK MID 36005MPS END R01/34005MPS QFE751/1001
UHMA 052330Z 36006MPS 9999 -SN BKN045 M31/M34 Q1006 R01/920370 NOSIG RMK MID 01005MPS END R01/36005MPS QFE751/1001
UHMA 052300Z 36006MPS 9999 -SN BKN046 M31/M34 Q1006 R01/920360 NOSIG RMK MID 36006MPS END R01/36006MPS QFE751/1001
UHMA 052230Z 35006MPS 9999 -SN BKN043 M31/M34 Q1006 R01/920360 NOSIG RMK MID 35007MPS END R01/35006MPS QFE751/1001
UHMA 052200Z 36005MPS 9999 BKN041 M31/M35 Q1006 R01/920360 NOSIG RMK MID 01005MPS END R01/35005MPS QFE751/1001
UHMA 052130Z 01006MPS 9999 SCT037 M32/M35 Q1006 R01/920360 NOSIG RMK MID 01006MPS END R01/36004MPS QFE751/1001
UHMA 052100Z 34005MPS 9999 BKN030 M32/M35 Q1006 R01/920360 NOSIG RMK MID 34006MPS END R01/34006MPS QFE751/1001
UHMA 052030Z 35008MPS 9999 BKN031 M32/M35 Q1006 R01/920360 NOSIG RMK MID 35006MPS END R01/34005MPS QFE750/1001
UHMA 052000Z 35006MPS 9999 BKN026 M32/M36 Q1006 R01/////// NOSIG RMK MID 35006MPS END R01/34005MPS QFE750/1001
UHMA 051930Z 01005MPS 9999 -SN BKN031 M33/M36 Q1005 R01/////// NOSIG RMK MID 01005MPS END R01/35004MPS QFE750/1001
UHMA 051900Z 01005MPS 9999 SCT031 M33/M36 Q1005 R01/////// NOSIG RMK MID 01004MPS END R01/03003MPS QFE750/1000
UHMA 051830Z 02005MPS 9999 SCT033 M33/M36 Q1005 R01/////// NOSIG RMK MID 02005MPS END R01/36005MPS QFE750/1000
UHMA 051800Z 01004MPS 9999 FEW033 M34/M37 Q1005 R01/////// NOSIG RMK MID 01004MPS END R01/36004MPS QFE750/1001
UHMA 051730Z 01004MPS CAVOK M34/M38 Q1006 R01/////// NOSIG RMK MID 01004MPS END R01/02004MPS QFE750/1001
UHMA 051700Z 36004MPS CAVOK M34/M37 Q1005 R01/////// NOSIG RMK MID 01005MPS END R01/02004MPS QFE750/1000
UHMA 051630Z 01005MPS CAVOK M34/M37 Q1005 R01/////// NOSIG RMK MID 01005MPS END R01/01004MPS QFE750/1000
UHMA 051600Z 01003MPS CAVOK M35/M38 Q1005 R01/////// NOSIG RMK MID 02004MPS END R01/01003MPS QFE750/1000
UHMA 051530Z 34005MPS CAVOK M34/M37 Q1005 R01/////// NOSIG RMK MID 01003MPS END R01/01001MPS QFE750/1000
UHMA 051500Z 33006MPS CAVOK M34/M37 Q1005 R01/////// NOSIG RMK MID 32005MPS END R01/32003MPS QFE750/1000
UHMA 051430Z 35002MPS 320V020 CAVOK M34/M37 Q1005 R01/////// NOSIG RMK MID 33004MPS END R01/33004MPS QFE750/1000
UHMA 051400Z 34004MPS CAVOK M34/M37 Q1005 R01/////// NOSIG RMK MID 34002MPS END R01/35004MPS QFE750/1000
UHMA 051330Z 34004MPS CAVOK M34/M37 Q1005 R01/////// NOSIG RMK MID 34004MPS END R01/33004MPS QFE750/1000
UHMA 051300Z 36004MPS 9999 FEW034 M33/M36 Q1005 R01/////// NOSIG RMK MID 01004MPS END R01/35003MPS QFE750/1000
UHMA 051230Z 33006MPS 9999 FEW034 M33/M36 Q1005 R01/////// NOSIG RMK MID 33006MPS END R01/32005MPS QFE750/1000
UHMA 051200Z 31004MPS CAVOK M33/M36 Q1005 R01/////// NOSIG RMK MID 33005MPS END R01/32005MPS QFE750/1000
UHMA 051130Z 35004MPS CAVOK M33/M36 Q1005 R01/////// NOSIG RMK MID 34006MPS END R01/33004MPS QFE750/1001
UHMA 051100Z 02005MPS CAVOK M33/M36 Q1005 R01/////// NOSIG RMK MID 36004G07MPS END R01/34005MPS QFE750/1001
UHMA 051030Z 36005MPS CAVOK M33/M36 Q1005 R01/////// NOSIG RMK MID 02004MPS END R01/35004MPS QFE750/1000
UHMA 051000Z 35004MPS CAVOK M33/M36 Q1005 R01/////// NOSIG RMK MID 35004MPS END R01/33004MPS QFE750/1000
UHMA 050930Z 36003MPS CAVOK M33/M36 Q1005 R01/////// NOSIG RMK MID 36005MPS END R01/36002MPS QFE750/1000
UHMA 050900Z 35004MPS CAVOK M33/M37 Q1006 R01/////// NOSIG RMK MID 33003MPS END R01/34005MPS QFE750/1001
UHMA 050830Z 32004MPS CAVOK M33/M36 Q1006 R01/////// NOSIG RMK MID 32005MPS END R01/32005MPS QFE750/1001
UHMA 050800Z 34005MPS CAVOK M32/M35 Q1006 R01/////// NOSIG RMK MID 33005MPS END R01/34006MPS QFE750/1001
UHMA 050730Z 34006MPS CAVOK M32/M35 Q1005 R01/////// NOSIG RMK MID 34004MPS END R01/03002G05MPS QFE750/1001
UHMA 050700Z 35006MPS CAVOK M31/M34 Q1005 R01/////// NOSIG RMK MID 35006MPS END R01/33007MPS QFE750/1000
UHMA 050630Z 33005MPS CAVOK M31/M34 Q1005 R01/////// NOSIG RMK MID 33006MPS END R01/32006MPS QFE750/1001
UHMA 050600Z 35003MPS CAVOK M31/M35 Q1006 R01/////// NOSIG RMK MID 34005MPS END R01/33005MPS QFE750/1001
UHMA 050530Z 34002MPS CAVOK M31/M34 Q1006 R01/////// NOSIG RMK MID 34006MPS END R01/28002MPS QFE750/1001
UHMA 050500Z 36004MPS CAVOK M31/M34 Q1006 R01/////// NOSIG RMK MID 34006MPS END R01/33005MPS QFE750/1001
UHMA 050430Z 34006MPS CAVOK M31/M34 Q1006 R01/////// NOSIG RMK MID 34006MPS END R01/33006MPS QFE750/1001
UHMA 050400Z 35005MPS CAVOK M31/M34 Q1006 R01/////// NOSIG RMK MID 34005MPS END R01/33006MPS QFE750/1001
UHMA 050330Z 34006MPS CAVOK M30/M34 Q1006 R01/////// NOSIG RMK MID 34006MPS END R01/32004MPS QFE750/1001
UHMA 050300Z 35005MPS CAVOK M31/M34 Q1006 R01/////// NOSIG RMK MID 34005MPS END R01/34004MPS QFE751/1001
UHMA 050230Z 36004MPS CAVOK M30/M34 Q1006 R01/////// NOSIG RMK MID 35004MPS END R01/35004MPS QFE751/1001
UHMA 050200Z 36004MPS CAVOK M30/M34 Q1006 R01/////// NOSIG RMK MID 35004MPS END R01/35003MPS QFE751/1001
UHMA 050130Z 36004MPS CAVOK M30/M33 Q1006 R01/////// NOSIG RMK MID 36003MPS END R01/34003MPS QFE751/1001
UHMA 050100Z 36004MPS CAVOK M30/M33 Q1006 R01/////// NOSIG RMK MID 35005MPS END R01/36003MPS QFE751/1001
UHMA 050030Z 36004MPS CAVOK M29/M33 Q1006 R01/////// NOSIG RMK MID 35005MPS END R01/34004MPS QFE751/1001
UHMA 050000Z 33003MPS CAVOK M30/M33 Q1007 R01/////// NOSIG RMK MID 33004MPS END R01/33005MPS QFE751/1002
UHMA 042300Z 01004MPS CAVOK M30/M33 Q1007 R01/////// NOSIG RMK MID 35004MPS END R01/34004MPS QFE751/1002
UHMA 042200Z 35006MPS CAVOK M30/M33 Q1007 R01/////// NOSIG RMK MID 34005MPS END R01/33004MPS QFE751/1002
UHMA 042100Z 35007MPS CAVOK M30/M34 Q1007 R01/////// NOSIG RMK MID 35005MPS END R01/35002MPS QFE751/1002